Sankoumaru 31 — JD2200 — position and weather

sailwx.info

Track history (hours):
 
Tides and Currents Weather Stations Pressure Air Temp Water Temp Dewpoint Dewpoint Depression Visibility Wind Speed Wind Dir Waves Ship Positions

Sankoumaru 31

Last reported at 2015-May-01 17:34 UTC. Time now 2015-May-04 02:00 UTC.
Position N 37°04' E 141°04'.

Length 75 m; draft 5 m.

Type: Cargo ship. MMSI: 431501842.

Date/timePositionNaut miles runAvg speedWind from/ knotsBaromVisibWave heightAir tempDewpointWater temp
2015-May-01 17:34N 37°04' E 141°04'1211.4
2015-May-01 16:32N 36°52' E 141°02'1110.9
2015-May-01 15:33N 36°42' E 141°01'1211.3
2015-May-01 14:29N 36°30' E 141°00'2211.4
2015-May-01 12:34N 36°08' E 140°57'1111.4
2015-May-01 11:33N 35°57' E 140°57'1111.3
2015-May-01 10:33N 35°45' E 140°55'1411.3
2015-May-01 09:21N 35°33' E 140°48'1012.5
2015-May-01 08:33N 35°25' E 140°40'1211.8
2015-May-01 07:33N 35°16' E 140°31'2311.5
2015-May-01 05:33N 35°01' E 140°10'261 9.7
2015-Apr-30 02:30N 33°60' E 135°01'1111.4
2015-Apr-30 01:33N 34°10' E 135°02'1312.0
2015-Apr-30 00:30N 34°22' E 135°08'1111.5
2015-Apr-29 23:33N 34°31' E 135°16'9 9.5
2015-Apr-29 22:34N 34°35' E 135°26'1 0.1
2015-Apr-29 11:15N 34°35' E 135°28'2 0.1
2015-Apr-28 13:33N 34°36' E 135°25'3 1.9
2015-Apr-28 12:15N 34°38' E 135°27'0 0.0
2015-Apr-28 11:32N 34°38' E 135°27'0 0.0
2015-Apr-28 10:32N 34°38' E 135°27'0 0.0
2015-Apr-28 09:26N 34°38' E 135°27'0 0.1
2015-Apr-28 08:24N 34°38' E 135°27'0 0.0
2015-Apr-28 07:18N 34°38' E 135°27'0 0.0
2015-Apr-28 06:30N 34°38' E 135°27'0 0.0
2015-Apr-28 05:24N 34°38' E 135°27'0 0.0
2015-Apr-28 04:12N 34°38' E 135°27'0 0.0
2015-Apr-28 03:24N 34°38' E 135°27'0 0.0
2015-Apr-28 02:30N 34°38' E 135°27'0 0.0
2015-Apr-28 01:31N 34°38' E 135°27'0 0.0
2015-Apr-28 00:30N 34°38' E 135°27'1 1.0
2015-Apr-27 23:29N 34°38' E 135°26'3 3.7
2015-Apr-27 22:33N 34°37' E 135°23'0 0.0
2015-Apr-27 21:16N 34°37' E 135°23'0 0.0
2015-Apr-27 20:27N 34°37' E 135°23'0 0.0
2015-Apr-27 19:21N 34°37' E 135°23'0 0.0
2015-Apr-27 18:33N 34°37' E 135°23'0 0.0
2015-Apr-27 17:33N 34°37' E 135°23'0 0.0
2015-Apr-27 16:33N 34°37' E 135°23'0 0.0
2015-Apr-27 15:33N 34°37' E 135°23'0 0.0
2015-Apr-27 14:33N 34°37' E 135°23'0 0.0
2015-Apr-27 13:33N 34°37' E 135°23'0 0.0
2015-Apr-27 12:33N 34°37' E 135°23'0 0.0
2015-Apr-27 11:33N 34°37' E 135°23'1010.3
2015-Apr-27 10:33N 34°35' E 135°10'1311.6
2015-Apr-27 09:28N 34°36' E 134°55'2 0.0
2015-Apr-25 22:26N 34°38' E 134°54'8 9.5
2015-Apr-25 21:33N 34°36' E 135°04'1010.4
2015-Apr-25 20:33N 34°25' E 135°04'10 9.8
2015-Apr-25 19:33N 34°16' E 135°03'  
Track history (hours):
 
Tides and Currents Weather Stations Pressure Air Temp Water Temp Dewpoint Dewpoint Depression Visibility Wind Speed Wind Dir Waves Ship Positions

Sankoumaru 31

Last reported at 2015-May-01 17:34 UTC. Time now 2015-May-04 02:00 UTC.
Position N 37°04' E 141°04'.

Length 75 m; draft 5 m.

Type: Cargo ship. MMSI: 431501842.

Date/timePositionNaut miles runAvg speedWind from/ knotsBaromVisibWave heightAir tempDewpointWater temp
2015-May-01 17:34N 37°04' E 141°04'1211.4
2015-May-01 16:32N 36°52' E 141°02'1110.9
2015-May-01 15:33N 36°42' E 141°01'1211.3
2015-May-01 14:29N 36°30' E 141°00'2211.4
2015-May-01 12:34N 36°08' E 140°57'1111.4
2015-May-01 11:33N 35°57' E 140°57'1111.3
2015-May-01 10:33N 35°45' E 140°55'1411.3
2015-May-01 09:21N 35°33' E 140°48'1012.5
2015-May-01 08:33N 35°25' E 140°40'1211.8
2015-May-01 07:33N 35°16' E 140°31'2311.5
2015-May-01 05:33N 35°01' E 140°10'261 9.7
2015-Apr-30 02:30N 33°60' E 135°01'1111.4
2015-Apr-30 01:33N 34°10' E 135°02'1312.0
2015-Apr-30 00:30N 34°22' E 135°08'1111.5
2015-Apr-29 23:33N 34°31' E 135°16'9 9.5
2015-Apr-29 22:34N 34°35' E 135°26'1 0.1
2015-Apr-29 11:15N 34°35' E 135°28'2 0.1
2015-Apr-28 13:33N 34°36' E 135°25'3 1.9
2015-Apr-28 12:15N 34°38' E 135°27'0 0.0
2015-Apr-28 11:32N 34°38' E 135°27'0 0.0
2015-Apr-28 10:32N 34°38' E 135°27'0 0.0
2015-Apr-28 09:26N 34°38' E 135°27'0 0.1
2015-Apr-28 08:24N 34°38' E 135°27'0 0.0
2015-Apr-28 07:18N 34°38' E 135°27'0 0.0
2015-Apr-28 06:30N 34°38' E 135°27'0 0.0
2015-Apr-28 05:24N 34°38' E 135°27'0 0.0
2015-Apr-28 04:12N 34°38' E 135°27'0 0.0
2015-Apr-28 03:24N 34°38' E 135°27'0 0.0
2015-Apr-28 02:30N 34°38' E 135°27'0 0.0
2015-Apr-28 01:31N 34°38' E 135°27'0 0.0
2015-Apr-28 00:30N 34°38' E 135°27'1 1.0
2015-Apr-27 23:29N 34°38' E 135°26'3 3.7
2015-Apr-27 22:33N 34°37' E 135°23'0 0.0
2015-Apr-27 21:16N 34°37' E 135°23'0 0.0
2015-Apr-27 20:27N 34°37' E 135°23'0 0.0
2015-Apr-27 19:21N 34°37' E 135°23'0 0.0
2015-Apr-27 18:33N 34°37' E 135°23'0 0.0
2015-Apr-27 17:33N 34°37' E 135°23'0 0.0
2015-Apr-27 16:33N 34°37' E 135°23'0 0.0
2015-Apr-27 15:33N 34°37' E 135°23'0 0.0
2015-Apr-27 14:33N 34°37' E 135°23'0 0.0
2015-Apr-27 13:33N 34°37' E 135°23'0 0.0
2015-Apr-27 12:33N 34°37' E 135°23'0 0.0
2015-Apr-27 11:33N 34°37' E 135°23'1010.3
2015-Apr-27 10:33N 34°35' E 135°10'1311.6
2015-Apr-27 09:28N 34°36' E 134°55'2 0.0
2015-Apr-25 22:26N 34°38' E 134°54'8 9.5
2015-Apr-25 21:33N 34°36' E 135°04'1010.4
2015-Apr-25 20:33N 34°25' E 135°04'10 9.8
2015-Apr-25 19:33N 34°16' E 135°03'  

Dump ship's entire track history